Aviation Digital Data Service (ADDS)

Output produced by METARs form (1215 UTC 29 May 2015)
found at http://www.aviationweather.gov/adds/metars/
 
KGED 291201Z AUTO 06005KT 10SM SCT016 22/18 A3027 RMK AO2 T02170178